Date,TemperatureHighF,TemperatureAvgF,TemperatureLowF,DewpointHighF,DewpointAvgF,DewpointLowF,HumidityHigh,HumidityAvg,HumidityLow,PressureMaxIn,PressureMinIn,WindSpeedMaxMPH,WindSpeedAvgMPH,GustSpeedMaxMPH,PrecipitationSumIn
2013-8-1,96.6,82.4,62.2,60.6,56.5,51.1,86,47,22,29.91,29.67,6,2,11,0.00
2013-8-2,84.6,72.3,63.1,61.5,54.8,45.4,80,57,28,29.80,29.71,3,2,9,0.00
2013-8-3,79.9,69.0,59.2,57.8,51.5,45.9,90,56,32,30.07,29.77,6,2,11,0.04
2013-8-4,79.0,69.7,58.3,59.1,51.5,46.3,86,55,32,30.08,30.00,4,2,10,0.00
2013-8-5,79.0,66.9,59.7,59.8,56.0,50.0,90,70,37,30.00,29.74,4,1,10,0.37
2013-8-6,76.5,66.5,53.1,56.3,46.6,38.6,90,53,27,30.02,29.89,3,1,5,0.00
2013-8-7,76.5,67.8,57.6,54.1,44.9,37.3,82,47,25,30.01,29.88,5,2,11,0.00
2013-8-8,83.3,70.8,52.0,50.9,44.9,33.1,78,43,19,30.11,30.01,3,1,7,0.00
2013-8-9,80.1,69.1,60.8,61.2,48.7,37.9,87,52,23,30.16,29.99,4,2,10,0.04
2013-8-10,77.7,66.8,56.3,48.8,43.1,34.4,72,45,25,30.18,30.11,4,2,9,0.00
2013-8-11,77.4,68.4,60.4,55.2,46.2,37.1,73,47,24,30.10,29.98,5,2,11,0.00
2013-8-12,75.0,65.2,55.8,50.5,42.1,29.9,77,46,21,30.07,29.96,5,2,12,0.00
2013-8-13,72.0,60.3,51.8,54.3,48.3,36.1,85,67,27,30.18,30.07,4,1,7,0.02
2013-8-14,80.1,66.3,51.1,58.3,51.9,44.8,90,64,30,30.19,30.11,3,1,9,0.08
2013-8-15,78.3,68.9,62.2,66.5,58.6,55.6,90,71,49,30.11,29.97,6,2,10,0.06
2013-8-16,81.5,69.0,62.1,61.8,59.1,56.2,85,72,44,29.97,29.91,3,1,7,0.09
2013-8-17,72.7,64.3,56.5,58.6,54.3,50.8,90,71,47,29.95,29.68,4,2,10,0.04
2013-8-18,78.8,65.9,33.6,59.6,49.7,16.7,86,57,38,30.05,29.67,4,2,9,0.00
2013-8-19,78.1,66.8,53.2,52.7,47.1,42.3,88,52,30,30.28,29.88,3,2,8,0.00
2013-8-20,84.9,68.3,52.7,54.7,48.7,41.4,87,54,24,30.36,30.28,3,1,4,0.00
2013-8-21,85.5,71.9,53.2,57.2,51.2,44.3,90,52,27,30.28,30.13,3,1,7,0.00
2013-8-22,78.6,69.0,62.1,64.1,61.6,57.3,93,78,54,30.14,30.03,4,1,7,0.15
2013-8-23,83.3,73.7,61.5,61.9,56.6,49.8,96,59,37,30.03,29.84,6,2,14,0.00
2013-8-24,69.3,64.0,59.2,66.1,60.0,54.4,97,87,74,29.86,29.79,4,2,8,0.46
2013-8-25,78.1,67.9,55.6,63.7,58.2,50.8,97,73,47,30.03,29.80,6,2,12,0.08
2013-8-26,82.2,69.7,59.4,61.3,54.6,47.8,94,63,35,30.08,30.02,5,2,9,0.00
2013-8-27,79.7,64.7,53.4,60.3,50.7,44.9,100,65,31,30.11,30.02,4,1,6,0.00
2013-8-28,84.9,68.8,53.1,57.5,51.3,45.6,97,58,27,30.21,30.11,4,1,6,0.00
2013-8-29,80.6,69.1,57.4,59.2,55.6,51.2,95,65,36,30.18,30.12,4,1,9,0.00
2013-8-30,81.0,70.5,58.5,62.8,58.3,55.2,95,68,42,30.13,30.03,4,2,10,0.00
2013-8-31,74.3,64.1,54.0,60.4,45.0,38.1,95,53,27,30.38,30.11,3,2,9,0.00